F/V Le Mirador — FPHO — position and weather

sailwx.info

Track history (hours):
 
Tides and Currents Weather Stations Pressure Air Temp Water Temp Dewpoint Dewpoint Depression Visibility Wind Speed Wind Dir Waves Ship Positions

F/V Le Mirador

Last reported at 2014-Jul-27 22:33 UTC. Time now 2014-Jul-28 04:16 UTC.
Position N 46°21' W 002°13'.

Length 19 m; draft 2.8 m.

Type: Fishing. MMSI: 227901000.

Date/timePositionNaut miles runAvg speedWind from/ knotsBaromVisibWave heightAir tempDewpointWater temp
2014-Jul-27 22:33N 46°21' W 002°13'9 9.3
2014-Jul-27 21:33N 46°25' W 002°01'9 9.4
2014-Jul-27 20:33N 46°29' W 001°48'2 1.7
2014-Jul-27 19:33N 46°30' W 001°47'2 1.8
2014-Jul-27 18:33N 46°28' W 001°49'9 9.2
2014-Jul-27 17:33N 46°25' W 002°01'9 9.1
2014-Jul-27 16:33N 46°21' W 002°13'9 9.3
2014-Jul-27 15:33N 46°17' W 002°25'9 9.3
2014-Jul-27 14:32N 46°13' W 002°37'39 9.1
2014-Jul-27 10:15N 45°58' W 003°28'5 0.1
2014-Jul-25 22:07N 46°02' W 003°28'0 0.1
2014-Jul-25 21:22N 46°02' W 003°28'0 0.0
2014-Jul-25 20:31N 46°02' W 003°28'0 0.1
2014-Jul-25 19:28N 46°02' W 003°28'  
2014-Jul-18 00:33N 46°27' W 003°21'0 0.2
2014-Jul-17 23:33N 46°27' W 003°21'  
Track history (hours):
 
Tides and Currents Weather Stations Pressure Air Temp Water Temp Dewpoint Dewpoint Depression Visibility Wind Speed Wind Dir Waves Ship Positions

F/V Le Mirador

Last reported at 2014-Jul-27 22:33 UTC. Time now 2014-Jul-28 04:16 UTC.
Position N 46°21' W 002°13'.

Length 19 m; draft 2.8 m.

Type: Fishing. MMSI: 227901000.

Date/timePositionNaut miles runAvg speedWind from/ knotsBaromVisibWave heightAir tempDewpointWater temp
2014-Jul-27 22:33N 46°21' W 002°13'9 9.3
2014-Jul-27 21:33N 46°25' W 002°01'9 9.4
2014-Jul-27 20:33N 46°29' W 001°48'2 1.7
2014-Jul-27 19:33N 46°30' W 001°47'2 1.8
2014-Jul-27 18:33N 46°28' W 001°49'9 9.2
2014-Jul-27 17:33N 46°25' W 002°01'9 9.1
2014-Jul-27 16:33N 46°21' W 002°13'9 9.3
2014-Jul-27 15:33N 46°17' W 002°25'9 9.3
2014-Jul-27 14:32N 46°13' W 002°37'39 9.1
2014-Jul-27 10:15N 45°58' W 003°28'5 0.1
2014-Jul-25 22:07N 46°02' W 003°28'0 0.1
2014-Jul-25 21:22N 46°02' W 003°28'0 0.0
2014-Jul-25 20:31N 46°02' W 003°28'0 0.1
2014-Jul-25 19:28N 46°02' W 003°28'  
2014-Jul-18 00:33N 46°27' W 003°21'0 0.2
2014-Jul-17 23:33N 46°27' W 003°21'  

Dump ship's entire track history